createdAt,value
2023-09-09T00:00:44.616Z,94928.56
2023-09-09T00:03:11.581Z,94929.09
2023-09-09T00:05:38.309Z,94928.03
2023-09-09T00:08:05.387Z,94926.47
2023-09-09T00:10:36.317Z,94928.94
2023-09-09T00:13:04.470Z,94930.56
2023-09-09T00:15:32.668Z,94926.31
2023-09-09T00:18:01.073Z,94924.91
2023-09-09T00:20:36.793Z,94914.59
2023-09-09T00:23:09.647Z,94916.41
2023-09-09T00:25:37.604Z,94923.50
2023-09-09T00:28:05.392Z,94921.94
2023-09-09T00:30:32.119Z,94925.66
2023-09-09T00:32:59.759Z,94922.81
2023-09-09T00:35:26.905Z,94925.84
2023-09-09T00:37:53.584Z,94925.69
2023-09-09T00:40:20.209Z,94920.19
2023-09-09T00:42:46.841Z,94926.06
2023-09-09T00:45:13.493Z,94923.19
2023-09-09T00:47:40.802Z,94919.66
2023-09-09T00:50:11.475Z,94916.13
2023-09-09T00:52:43.057Z,94919.31
2023-09-09T00:55:12.270Z,94915.78
2023-09-09T00:57:38.909Z,94913.63
2023-09-09T01:00:12.347Z,94914.91
2023-09-09T01:02:40.254Z,94903.19
2023-09-09T01:05:08.580Z,94915.63
2023-09-09T01:07:49.500Z,94910.28
2023-09-09T01:10:20.223Z,94911.34
2023-09-09T01:12:46.978Z,94911.00
2023-09-09T01:15:14.332Z,94909.59
2023-09-09T01:17:41.358Z,94915.44
2023-09-09T01:20:15.815Z,94916.00
2023-09-09T01:22:44.932Z,94912.97
2023-09-09T01:25:13.073Z,94916.16
2023-09-09T01:27:40.398Z,94906.06
2023-09-09T01:30:08.530Z,94910.69
2023-09-09T01:32:35.812Z,94912.97
2023-09-09T01:35:08.221Z,94908.91
2023-09-09T01:37:35.356Z,94906.59
2023-09-09T01:40:11.732Z,94908.56
2023-09-09T01:42:39.411Z,94910.34
2023-09-09T01:45:06.548Z,94908.19
2023-09-09T01:47:33.433Z,94909.28
2023-09-09T01:50:03.879Z,94893.84
2023-09-09T01:52:30.680Z,94907.66
2023-09-09T01:54:57.479Z,94900.75
2023-09-09T01:57:27.837Z,94911.22
2023-09-09T01:59:55.662Z,94894.56
2023-09-09T02:02:22.649Z,94894.19
2023-09-09T02:04:58.198Z,94886.41
2023-09-09T02:07:24.955Z,94903.41
2023-09-09T02:09:51.715Z,94901.13
2023-09-09T02:12:20.918Z,94885.84
2023-09-09T02:14:51.852Z,94893.47
2023-09-09T02:17:19.819Z,94884.06
2023-09-09T02:19:47.802Z,94883.56
2023-09-09T02:22:17.509Z,94892.97
2023-09-09T02:24:44.166Z,94899.69
2023-09-09T02:27:10.877Z,94889.59
2023-09-09T02:29:40.618Z,94891.53
2023-09-09T02:32:09.781Z,94884.44
2023-09-09T02:34:43.784Z,94896.31
2023-09-09T02:37:21.865Z,94898.44
2023-09-09T02:39:52.423Z,94881.06
2023-09-09T02:42:26.329Z,94898.78
2023-09-09T02:44:55.480Z,94894.50
2023-09-09T02:47:30.578Z,94892.38
2023-09-09T02:50:00.148Z,94887.06
2023-09-09T02:52:32.777Z,94886.72
2023-09-09T02:55:01.811Z,94876.44
2023-09-09T02:57:28.557Z,94893.06
2023-09-09T03:00:07.859Z,94875.88
2023-09-09T03:02:48.342Z,94872.88
2023-09-09T03:05:21.408Z,94871.25
2023-09-09T03:07:56.156Z,94881.75
2023-09-09T03:10:29.138Z,94881.38
2023-09-09T03:13:00.542Z,94874.63
2023-09-09T03:15:51.119Z,94877.97
2023-09-09T03:18:20.350Z,94886.31
2023-09-09T03:20:47.227Z,94883.66
2023-09-09T03:23:20.474Z,94879.22
2023-09-09T03:25:52.903Z,94862.53
2023-09-09T03:28:24.282Z,94880.44
2023-09-09T03:31:00.428Z,94890.22
2023-09-09T03:33:38.850Z,94888.59
2023-09-09T03:36:10.675Z,94888.22
2023-09-09T03:38:40.636Z,94900.50
2023-09-09T03:41:10.430Z,94894.97
2023-09-09T03:43:39.210Z,94890.16
2023-09-09T03:46:06.388Z,94869.25
2023-09-09T03:48:56.996Z,94875.44
2023-09-09T03:51:23.466Z,94897.78
2023-09-09T03:53:50.374Z,94899.56
2023-09-09T03:56:23.873Z,94880.91
2023-09-09T03:58:53.833Z,94872.56
2023-09-09T04:01:20.777Z,94880.38
2023-09-09T04:03:52.064Z,94906.44
2023-09-09T04:06:32.330Z,94896.66
2023-09-09T04:14:20.878Z,94896.81
2023-09-09T04:16:47.777Z,94897.38
2023-09-09T04:19:17.758Z,94890.06
2023-09-09T04:21:47.566Z,94889.72
2023-09-09T04:24:16.956Z,94895.75
2023-09-09T04:26:50.151Z,94881.50
2023-09-09T04:29:37.087Z,94895.38
2023-09-09T04:32:33.346Z,94879.34
2023-09-09T04:35:49.355Z,94899.59
2023-09-09T04:41:14.875Z,94894.78
2023-09-09T04:47:00.497Z,94914.47
2023-09-09T04:49:38.028Z,94893.69
2023-09-09T04:52:44.260Z,94895.47
2023-09-09T04:58:31.615Z,94904.47
2023-09-09T05:01:04.858Z,94925.22
2023-09-09T05:04:21.697Z,94908.38
2023-09-09T05:15:17.261Z,94903.72
2023-09-09T05:17:58.022Z,94905.50
2023-09-09T05:20:51.783Z,94917.38
2023-09-09T05:29:29.928Z,94915.72
2023-09-09T05:31:56.564Z,94920.34
2023-09-09T05:34:23.474Z,94940.72
2023-09-09T05:36:52.978Z,94933.31
2023-09-09T05:39:22.503Z,94945.53
2023-09-09T05:41:49.219Z,94935.56
2023-09-09T05:44:16.336Z,94946.94
2023-09-09T05:46:46.141Z,94951.94
2023-09-09T05:49:27.843Z,94946.22
2023-09-09T05:52:04.632Z,94953.34
2023-09-09T05:54:36.376Z,94927.59
2023-09-09T05:57:03.062Z,94940.59
2023-09-09T05:59:29.794Z,94951.59
2023-09-09T06:01:56.509Z,94950.38
2023-09-09T06:04:25.833Z,94954.81
2023-09-09T06:06:52.807Z,94952.34
2023-09-09T06:12:03.546Z,94948.78
2023-09-09T06:14:30.424Z,94938.84
2023-09-09T06:16:57.196Z,94938.50
2023-09-09T06:19:28.035Z,94937.09
2023-09-09T06:21:54.725Z,94936.38
2023-09-09T06:24:28.927Z,94956.09
2023-09-09T06:26:55.795Z,94961.44
2023-09-09T06:29:58.484Z,94954.00
2023-09-09T06:32:25.241Z,94974.06
2023-09-09T06:34:51.966Z,94966.97
2023-09-09T06:37:21.170Z,94948.88
2023-09-09T06:42:44.858Z,94955.09
2023-09-09T06:45:14.026Z,94967.03
2023-09-09T06:47:47.230Z,94958.28
2023-09-09T06:50:20.209Z,94957.41
2023-09-09T06:53:19.261Z,94981.28
2023-09-09T06:55:56.568Z,94973.44
2023-09-09T06:58:43.577Z,94961.22
2023-09-09T07:01:21.448Z,94972.25
2023-09-09T07:03:53.906Z,94984.50
2023-09-09T07:06:48.903Z,94984.69
2023-09-09T07:09:44.907Z,94963.56
2023-09-09T07:12:16.240Z,94976.31
2023-09-09T07:14:49.306Z,94966.84
2023-09-09T07:17:24.056Z,94972.34
2023-09-09T07:19:53.797Z,94986.03
2023-09-09T07:22:23.149Z,94979.28
2023-09-09T07:25:10.070Z,94967.41
2023-09-09T07:27:39.982Z,94974.69
2023-09-09T07:30:07.798Z,94984.66
2023-09-09T07:32:34.577Z,94982.53
2023-09-09T07:35:05.449Z,94977.72
2023-09-09T07:37:32.191Z,94977.75
2023-09-09T07:40:00.243Z,94979.19
2023-09-09T07:42:27.033Z,94984.84
2023-09-09T07:44:54.848Z,94980.56
2023-09-09T07:47:22.320Z,94983.25
2023-09-09T07:49:50.141Z,94978.09
2023-09-09T07:52:16.821Z,94971.16
2023-09-09T07:54:43.619Z,94970.09
2023-09-09T07:57:10.229Z,94975.25
2023-09-09T07:59:42.804Z,94987.13
2023-09-09T08:02:09.905Z,94979.63
2023-09-09T08:04:45.516Z,94986.75
2023-09-09T08:07:13.294Z,94982.09
2023-09-09T08:09:41.153Z,94990.28
2023-09-09T08:12:08.045Z,94988.44
2023-09-09T08:14:35.218Z,94989.88
2023-09-09T08:17:02.986Z,94983.66
2023-09-09T08:19:30.443Z,94992.50
2023-09-09T08:22:03.730Z,94999.94
2023-09-09T08:24:38.890Z,94979.13
2023-09-09T08:27:11.464Z,94991.91
2023-09-09T08:29:38.136Z,94987.94
2023-09-09T08:32:10.884Z,94975.84
2023-09-09T08:34:38.718Z,94981.31
2023-09-09T08:37:08.562Z,94993.50
2023-09-09T08:39:35.377Z,94990.28
2023-09-09T08:42:08.180Z,94998.91
2023-09-09T08:44:46.015Z,95000.13
2023-09-09T08:47:13.326Z,94985.53
2023-09-09T08:49:48.078Z,94972.50
2023-09-09T08:52:25.931Z,94990.00
2023-09-09T08:54:54.009Z,94980.91
2023-09-09T08:57:20.865Z,94994.50
2023-09-09T08:59:49.199Z,94974.44
2023-09-09T09:02:18.797Z,94986.97
2023-09-09T09:04:59.672Z,94979.50
2023-09-09T09:07:28.831Z,94990.22
2023-09-09T09:09:56.127Z,95000.13
2023-09-09T09:12:34.212Z,94979.31
2023-09-09T09:15:06.907Z,94986.53
2023-09-09T09:17:34.613Z,94998.72
2023-09-09T09:20:01.423Z,94983.16
2023-09-09T09:22:30.896Z,94987.56
2023-09-09T09:24:57.576Z,94990.28
2023-09-09T09:27:24.417Z,95001.16
2023-09-09T09:29:51.185Z,94999.19
2023-09-09T09:32:17.815Z,94983.94
2023-09-09T09:34:47.995Z,94984.03
2023-09-09T09:37:17.013Z,94987.63
2023-09-09T09:39:46.405Z,94983.28
2023-09-09T09:42:14.354Z,94994.09
2023-09-09T09:44:41.461Z,94971.06
2023-09-09T09:47:13.319Z,94995.28
2023-09-09T09:49:49.676Z,94988.97
2023-09-09T09:52:26.654Z,94973.50
2023-09-09T09:54:54.442Z,94977.03
2023-09-09T09:57:22.480Z,94983.25
2023-09-09T09:59:49.424Z,94986.00
2023-09-09T10:02:16.930Z,94987.53
2023-09-09T10:04:44.493Z,94974.72
2023-09-09T10:07:17.934Z,94969.72
2023-09-09T10:10:00.433Z,94990.19
2023-09-09T10:13:08.725Z,94983.84
2023-09-09T10:15:36.582Z,94979.31
2023-09-09T10:18:05.114Z,94973.72
2023-09-09T10:20:32.220Z,94970.88
2023-09-09T10:23:01.321Z,94960.88
2023-09-09T10:25:29.000Z,94950.59
2023-09-09T10:27:57.418Z,94977.25
2023-09-09T10:30:25.322Z,94969.25
2023-09-09T10:32:53.723Z,94975.84
2023-09-09T10:35:21.549Z,94974.47
2023-09-09T10:37:54.499Z,94967.81
2023-09-09T10:40:22.015Z,94973.44
2023-09-09T10:42:49.385Z,94955.66
2023-09-09T10:45:30.825Z,94954.41
2023-09-09T10:48:01.900Z,94951.00
2023-09-09T10:50:46.117Z,94959.19
2023-09-09T10:53:28.944Z,94959.03
2023-09-09T10:55:59.996Z,94956.38
2023-09-09T10:58:35.483Z,94967.06
2023-09-09T11:01:02.949Z,94960.00
2023-09-09T11:03:42.433Z,94959.66
2023-09-09T11:06:30.899Z,94948.94
2023-09-09T11:09:03.979Z,94961.03
2023-09-09T11:11:39.057Z,94952.00
2023-09-09T11:14:07.435Z,94945.97
2023-09-09T11:16:38.121Z,94962.75
2023-09-09T11:19:15.661Z,94966.44
2023-09-09T11:21:45.952Z,94959.66
2023-09-09T11:24:13.199Z,94951.13
2023-09-09T11:26:41.848Z,94951.78
2023-09-09T11:29:14.836Z,94951.91
2023-09-09T11:31:53.790Z,94956.72
2023-09-09T11:34:33.998Z,94970.69
2023-09-09T11:37:02.410Z,94965.69
2023-09-09T11:39:29.662Z,94963.00
2023-09-09T11:41:56.515Z,94958.53
2023-09-09T11:44:23.113Z,94952.75
2023-09-09T11:46:53.082Z,94953.72
2023-09-09T11:49:20.403Z,94953.81
2023-09-09T11:51:47.455Z,94948.81
2023-09-09T11:54:21.940Z,94955.00
2023-09-09T11:56:49.084Z,94945.34
2023-09-09T11:59:16.868Z,94949.28
2023-09-09T12:01:45.292Z,94950.28
2023-09-09T12:04:14.487Z,94948.31
2023-09-09T12:06:44.513Z,94942.84
2023-09-09T12:09:11.577Z,94932.44
2023-09-09T12:11:41.348Z,94948.09
2023-09-09T12:14:08.412Z,94946.06
2023-09-09T12:16:36.467Z,94954.84
2023-09-09T12:19:03.315Z,94954.44
2023-09-09T12:21:31.063Z,94943.09
2023-09-09T12:23:59.605Z,94947.47
2023-09-09T12:26:27.662Z,94942.78
2023-09-09T12:29:11.462Z,94933.56
2023-09-09T12:31:52.233Z,94938.59
2023-09-09T12:34:20.957Z,94940.81
2023-09-09T12:36:52.129Z,94947.28
2023-09-09T12:39:29.658Z,94946.19
2023-09-09T12:42:03.535Z,94946.44
2023-09-09T12:44:35.499Z,94942.66
2023-09-09T12:47:06.543Z,94944.66
2023-09-09T12:49:33.852Z,94949.81
2023-09-09T12:52:00.545Z,94949.31
2023-09-09T12:54:27.296Z,94946.50
2023-09-09T12:56:53.981Z,94942.28
2023-09-09T12:59:20.715Z,94945.09
2023-09-09T13:01:49.395Z,94947.84
2023-09-09T13:04:16.132Z,94945.75
2023-09-09T13:06:42.899Z,94948.09
2023-09-09T13:09:09.481Z,94931.22
2023-09-09T13:11:36.362Z,94937.28
2023-09-09T13:14:13.274Z,94938.69
2023-09-09T13:16:47.133Z,94936.78
2023-09-09T13:19:13.859Z,94934.63
2023-09-09T13:21:40.466Z,94944.44
2023-09-09T13:24:07.346Z,94941.00
2023-09-09T13:26:34.243Z,94941.38
2023-09-09T13:29:00.805Z,94933.41
2023-09-09T13:31:27.439Z,94946.38
2023-09-09T13:33:54.064Z,94945.25
2023-09-09T13:36:20.682Z,94948.44
2023-09-09T13:38:47.705Z,94933.59
2023-09-09T13:41:14.831Z,94929.59
2023-09-09T13:43:41.517Z,94941.13
2023-09-09T13:46:08.274Z,94940.13
2023-09-09T13:48:35.174Z,94929.84
2023-09-09T13:51:01.801Z,94926.25
2023-09-09T13:53:28.425Z,94927.22
2023-09-09T13:55:57.312Z,94916.34
2023-09-09T13:58:23.839Z,94920.25
2023-09-09T14:00:52.275Z,94912.44
2023-09-09T14:03:21.064Z,94925.94
2023-09-09T14:05:47.823Z,94913.84
2023-09-09T14:08:14.494Z,94916.16
2023-09-09T14:10:41.285Z,94917.56
2023-09-09T14:13:07.883Z,94920.75
2023-09-09T14:15:34.498Z,94915.34
2023-09-09T14:18:01.184Z,94918.03
2023-09-09T14:20:27.892Z,94917.38
2023-09-09T14:22:54.780Z,94919.94
2023-09-09T14:25:21.506Z,94918.13
2023-09-09T14:27:48.066Z,94911.09
2023-09-09T14:30:14.946Z,94909.63
2023-09-09T14:32:41.605Z,94906.75
2023-09-09T14:35:08.490Z,94906.16
2023-09-09T14:37:35.129Z,94909.84
2023-09-09T14:40:03.657Z,94898.00
2023-09-09T14:42:30.289Z,94901.69
2023-09-09T14:44:56.891Z,94896.53
2023-09-09T14:47:23.788Z,94901.34
2023-09-09T14:49:50.438Z,94902.66
2023-09-09T14:52:17.400Z,94903.22
2023-09-09T14:54:44.069Z,94905.59
2023-09-09T14:57:10.751Z,94898.97
2023-09-09T14:59:37.359Z,94900.97
2023-09-09T15:02:04.168Z,94901.63
2023-09-09T15:04:30.847Z,94905.91
2023-09-09T15:06:57.909Z,94900.66
2023-09-09T15:09:24.521Z,94906.94
2023-09-09T15:11:51.122Z,94906.94
2023-09-09T15:14:17.790Z,94905.84
2023-09-09T15:16:49.501Z,94905.94
2023-09-09T15:19:16.502Z,94899.09
2023-09-09T15:21:43.262Z,94908.38
2023-09-09T15:24:11.129Z,94901.13
2023-09-09T15:26:38.858Z,94904.72
2023-09-09T15:29:06.414Z,94902.59
2023-09-09T15:31:35.287Z,94903.31
2023-09-09T15:34:02.388Z,94904.78
2023-09-09T15:36:29.116Z,94909.94
2023-09-09T15:38:55.837Z,94901.66
2023-09-09T15:41:24.344Z,94899.03
2023-09-09T15:43:52.241Z,94906.72
2023-09-09T15:46:19.104Z,94909.63
2023-09-09T15:48:45.789Z,94906.19
2023-09-09T15:51:12.369Z,94889.16
2023-09-09T15:53:38.931Z,94906.63
2023-09-09T15:56:11.375Z,94897.91
2023-09-09T15:58:38.496Z,94900.63
2023-09-09T16:01:05.440Z,94904.59
2023-09-09T16:03:33.412Z,94899.81
2023-09-09T16:06:06.988Z,94896.59
2023-09-09T16:08:38.716Z,94901.81
2023-09-09T16:11:06.045Z,94896.13
2023-09-09T16:13:33.577Z,94898.16
2023-09-09T16:16:02.894Z,94905.75
2023-09-09T16:18:31.427Z,94909.06
2023-09-09T16:20:58.901Z,94906.16
2023-09-09T16:23:25.519Z,94898.31
2023-09-09T16:25:54.111Z,94901.13
2023-09-09T16:28:21.411Z,94913.13
2023-09-09T16:30:50.665Z,94908.66
2023-09-09T16:33:17.681Z,94907.97
2023-09-09T16:35:45.692Z,94901.47
2023-09-09T16:38:12.834Z,94911.19
2023-09-09T16:40:40.096Z,94915.09
2023-09-09T16:43:06.987Z,94916.34
2023-09-09T16:45:33.889Z,94914.31
2023-09-09T16:48:03.543Z,94914.81
2023-09-09T16:50:31.438Z,94900.75
2023-09-09T16:52:58.554Z,94907.66
2023-09-09T16:55:25.451Z,94903.38
2023-09-09T16:57:52.082Z,94910.06
2023-09-09T17:00:18.860Z,94918.25
2023-09-09T17:02:45.574Z,94918.09
2023-09-09T17:05:12.348Z,94917.81
2023-09-09T17:07:39.053Z,94916.91
2023-09-09T17:10:06.489Z,94922.22
2023-09-09T17:12:33.155Z,94924.13
2023-09-09T17:14:59.780Z,94927.41
2023-09-09T17:17:26.508Z,94925.09
2023-09-09T17:19:53.215Z,94921.44
2023-09-09T17:22:19.968Z,94933.16
2023-09-09T17:24:48.842Z,94932.16
2023-09-09T17:27:15.593Z,94928.44
2023-09-09T17:29:43.814Z,94937.16
2023-09-09T17:32:11.063Z,94932.25
2023-09-09T17:34:42.719Z,94937.25
2023-09-09T17:37:10.255Z,94932.16
2023-09-09T17:39:36.924Z,94936.88
2023-09-09T17:42:03.607Z,94932.25
2023-09-09T17:44:30.246Z,94930.56
2023-09-09T17:46:57.107Z,94943.84
2023-09-09T17:49:26.817Z,94949.63
2023-09-09T17:52:08.188Z,94942.50
2023-09-09T17:54:36.350Z,94939.88
2023-09-09T17:57:03.387Z,94957.56
2023-09-09T17:59:29.950Z,94947.56
2023-09-09T18:01:56.595Z,94945.75
2023-09-09T18:04:23.255Z,94956.44
2023-09-09T18:06:50.159Z,94945.72
2023-09-09T18:09:17.712Z,94949.56
2023-09-09T18:11:44.430Z,94969.75
2023-09-09T18:14:11.075Z,94968.16
2023-09-09T18:16:38.107Z,94965.34
2023-09-09T18:19:04.885Z,94972.63
2023-09-09T18:21:31.455Z,94972.19
2023-09-09T18:23:58.092Z,94970.44
2023-09-09T18:26:24.801Z,94977.59
2023-09-09T18:28:51.915Z,94982.81
2023-09-09T18:31:20.444Z,94982.13
2023-09-09T18:33:47.599Z,94994.06
2023-09-09T18:36:14.632Z,94995.09
2023-09-09T18:38:43.346Z,94995.38
2023-09-09T18:41:11.185Z,94995.69
2023-09-09T18:43:37.913Z,94994.09
2023-09-09T18:46:05.357Z,94994.41
2023-09-09T18:48:32.293Z,95002.47
2023-09-09T18:50:58.968Z,94998.63
2023-09-09T18:53:28.240Z,95002.94
2023-09-09T18:55:54.964Z,94995.22
2023-09-09T18:58:22.621Z,94997.91
2023-09-09T19:00:53.273Z,94999.19
2023-09-09T19:03:21.721Z,95008.31
2023-09-09T19:05:48.587Z,95007.69
2023-09-09T19:08:16.035Z,95014.09
2023-09-09T19:10:42.973Z,95007.78
2023-09-09T19:13:13.189Z,95019.81
2023-09-09T19:15:40.316Z,95025.41
2023-09-09T19:18:07.633Z,95018.25
2023-09-09T19:20:35.449Z,95024.75
2023-09-09T19:23:02.271Z,95017.47
2023-09-09T19:25:28.928Z,95017.94
2023-09-09T19:27:55.589Z,95014.44
2023-09-09T19:30:22.579Z,95019.88
2023-09-09T19:32:49.414Z,95016.78
2023-09-09T19:35:16.000Z,95026.84
2023-09-09T19:37:42.972Z,95014.03
2023-09-09T19:40:10.001Z,95026.22
2023-09-09T19:42:36.661Z,95026.38
2023-09-09T19:45:11.424Z,95025.44
2023-09-09T19:47:38.306Z,95027.00
2023-09-09T19:50:05.494Z,95009.41
2023-09-09T19:52:32.170Z,95012.81
2023-09-09T19:54:58.835Z,95012.97
2023-09-09T19:57:25.380Z,95029.22
2023-09-09T19:59:52.048Z,95024.03
2023-09-09T20:02:18.644Z,95021.78
2023-09-09T20:04:45.367Z,95022.69
2023-09-09T20:07:12.075Z,95019.72
2023-09-09T20:09:39.684Z,95024.53
2023-09-09T20:12:06.737Z,95015.97
2023-09-09T20:14:33.562Z,95018.50
2023-09-09T20:17:00.234Z,95029.09
2023-09-09T20:19:26.922Z,95020.22
2023-09-09T20:21:53.558Z,95006.72
2023-09-09T20:24:20.072Z,95024.88
2023-09-09T20:26:46.772Z,95016.75
2023-09-09T20:29:13.368Z,95022.66
2023-09-09T20:31:40.035Z,95024.63
2023-09-09T20:34:07.292Z,95025.53
2023-09-09T20:36:33.954Z,95026.47
2023-09-09T20:39:00.759Z,95025.81
2023-09-09T20:41:27.354Z,95030.72
2023-09-09T20:43:53.935Z,95036.53
2023-09-09T20:46:20.625Z,95022.97
2023-09-09T20:48:47.220Z,95035.41
2023-09-09T20:51:13.827Z,95021.84
2023-09-09T20:53:40.394Z,95027.91
2023-09-09T20:56:13.718Z,95032.16
2023-09-09T20:58:43.687Z,95039.34
2023-09-09T21:01:10.511Z,95031.56
2023-09-09T21:03:37.531Z,95032.28
2023-09-09T21:06:04.255Z,95024.22
2023-09-09T21:08:30.836Z,95035.94
2023-09-09T21:10:57.957Z,95032.81
2023-09-09T21:13:24.806Z,95036.75
2023-09-09T21:15:51.981Z,95039.31
2023-09-09T21:18:18.827Z,95016.28
2023-09-09T21:20:46.009Z,95034.59
2023-09-09T21:23:13.498Z,95038.28
2023-09-09T21:25:41.387Z,95027.28
2023-09-09T21:28:08.952Z,95031.09
2023-09-09T21:30:36.113Z,95024.28
2023-09-09T21:33:04.011Z,95025.56
2023-09-09T21:35:30.752Z,95021.56
2023-09-09T21:37:57.422Z,95022.84
2023-09-09T21:40:24.071Z,95023.41
2023-09-09T21:42:50.675Z,95022.66
2023-09-09T21:45:17.390Z,95022.41
2023-09-09T21:47:44.114Z,95023.34
2023-09-09T21:50:10.877Z,95021.81
2023-09-09T21:52:37.529Z,95016.16
2023-09-09T21:55:04.421Z,95021.72
2023-09-09T21:57:31.092Z,95010.59
2023-09-09T21:59:58.954Z,95016.81
2023-09-09T22:02:25.666Z,95014.94
2023-09-09T22:04:52.383Z,95006.88
2023-09-09T22:07:20.655Z,95014.34
2023-09-09T22:09:47.771Z,95009.22
2023-09-09T22:12:14.470Z,95013.56
2023-09-09T22:14:44.161Z,95004.38
2023-09-09T22:17:12.406Z,95014.13
2023-09-09T22:19:39.054Z,95005.50
2023-09-09T22:22:05.740Z,95012.84
2023-09-09T22:24:32.326Z,95011.25
2023-09-09T22:27:00.661Z,95013.63
2023-09-09T22:29:27.958Z,95010.78
2023-09-09T22:31:54.932Z,94997.78
2023-09-09T22:34:21.617Z,95004.69
2023-09-09T22:36:48.278Z,94996.91
2023-09-09T22:39:15.158Z,95016.50
2023-09-09T22:41:41.794Z,95007.31
2023-09-09T22:44:08.582Z,95004.63
2023-09-09T22:46:35.300Z,95000.75
2023-09-09T22:49:01.941Z,95006.09
2023-09-09T22:51:28.591Z,95011.13
2023-09-09T22:53:55.251Z,95008.84
2023-09-09T22:56:21.931Z,95003.59
2023-09-09T22:58:48.563Z,95014.59
2023-09-09T23:01:17.902Z,95005.72
2023-09-09T23:03:44.976Z,94999.34
2023-09-09T23:06:11.991Z,95002.94
2023-09-09T23:08:38.888Z,94999.75
2023-09-09T23:11:13.604Z,95006.75
2023-09-09T23:13:40.905Z,94986.00
2023-09-09T23:16:07.721Z,94999.53
2023-09-09T23:18:34.601Z,94996.69
2023-09-09T23:21:01.289Z,94987.16
2023-09-09T23:23:27.968Z,94996.91
2023-09-09T23:25:56.018Z,95002.81
2023-09-09T23:28:22.733Z,94999.25
2023-09-09T23:31:01.440Z,94997.91
2023-09-09T23:33:37.360Z,94999.72
2023-09-09T23:36:04.785Z,94995.63
2023-09-09T23:38:32.319Z,95000.81
2023-09-09T23:40:59.221Z,95004.72
2023-09-09T23:43:26.488Z,94988.78
2023-09-09T23:45:53.549Z,94989.31
2023-09-09T23:48:20.375Z,94985.63
2023-09-09T23:50:47.115Z,94994.19
2023-09-09T23:53:14.049Z,94979.50
2023-09-09T23:55:40.738Z,94986.72
2023-09-09T23:58:07.387Z,94991.41
